createdAt,value
2022-08-17T00:00:34.371Z,19.10
2022-08-17T00:03:13.492Z,19.20
2022-08-17T00:05:47.854Z,19.20
2022-08-17T00:08:18.570Z,19.10
2022-08-17T00:10:45.924Z,19.10
2022-08-17T00:13:21.685Z,19.10
2022-08-17T00:15:48.512Z,19.10
2022-08-17T00:19:01.933Z,19.10
2022-08-17T00:21:05.519Z,19.10
2022-08-17T00:23:38.145Z,19.00
2022-08-17T00:26:05.058Z,18.90
2022-08-17T00:28:33.355Z,18.80
2022-08-17T00:31:00.527Z,18.80
2022-08-17T00:33:29.872Z,18.80
2022-08-17T00:35:57.751Z,18.70
2022-08-17T00:38:25.386Z,18.70
2022-08-17T00:41:01.662Z,18.60
2022-08-17T00:43:40.516Z,18.60
2022-08-17T00:46:35.597Z,18.60
2022-08-17T00:49:03.262Z,18.60
2022-08-17T00:51:44.101Z,18.60
2022-08-17T00:54:18.692Z,18.60
2022-08-17T00:56:56.586Z,18.50
2022-08-17T00:59:28.004Z,18.60
2022-08-17T01:01:54.766Z,18.50
2022-08-17T01:04:22.462Z,18.50
2022-08-17T01:06:50.938Z,18.40
2022-08-17T01:09:18.776Z,18.40
2022-08-17T01:11:48.018Z,18.40
2022-08-17T01:14:14.713Z,18.40
2022-08-17T01:16:41.461Z,18.30
2022-08-17T01:19:20.132Z,18.40
2022-08-17T01:22:11.146Z,18.40
2022-08-17T01:24:41.377Z,18.30
2022-08-17T01:27:10.730Z,18.30
2022-08-17T01:29:41.117Z,18.20
2022-08-17T01:32:08.995Z,18.20
2022-08-17T01:34:42.524Z,18.30
2022-08-17T01:37:11.726Z,18.20
2022-08-17T01:39:55.877Z,18.20
2022-08-17T01:42:45.276Z,18.20
2022-08-17T01:45:18.163Z,18.20
2022-08-17T01:47:45.672Z,18.10
2022-08-17T01:50:16.530Z,18.10
2022-08-17T01:52:51.372Z,18.00
2022-08-17T01:55:27.099Z,18.00
2022-08-17T01:57:54.181Z,18.00
2022-08-17T02:00:21.058Z,18.00
2022-08-17T02:02:47.948Z,18.00
2022-08-17T02:05:14.767Z,18.00
2022-08-17T02:07:59.982Z,17.90
2022-08-17T02:10:33.840Z,17.70
2022-08-17T02:13:02.370Z,17.70
2022-08-17T02:15:29.461Z,17.50
2022-08-17T02:17:56.083Z,17.40
2022-08-17T02:20:41.351Z,17.30
2022-08-17T02:23:10.651Z,17.30
2022-08-17T02:25:39.771Z,17.20
2022-08-17T02:28:06.547Z,17.20
2022-08-17T02:31:01.205Z,17.10
2022-08-17T02:33:20.089Z,17.10
2022-08-17T02:35:47.699Z,17.10
2022-08-17T02:38:15.140Z,17.10
2022-08-17T02:40:41.858Z,17.20
2022-08-17T02:43:09.579Z,17.20
2022-08-17T02:45:36.968Z,17.30
2022-08-17T02:48:04.341Z,17.30
2022-08-17T02:50:31.054Z,17.40
2022-08-17T02:53:02.458Z,17.40
2022-08-17T02:55:37.371Z,17.50
2022-08-17T02:58:05.074Z,17.50
2022-08-17T03:00:35.831Z,17.40
2022-08-17T03:03:07.409Z,17.40
2022-08-17T03:05:36.318Z,17.30
2022-08-17T03:08:04.300Z,17.30
2022-08-17T03:10:31.567Z,17.30
2022-08-17T03:12:59.466Z,17.30
2022-08-17T03:15:30.461Z,17.20
2022-08-17T03:17:58.122Z,17.20
2022-08-17T03:20:26.397Z,17.20
2022-08-17T03:22:56.065Z,17.20
2022-08-17T03:25:32.774Z,17.20
2022-08-17T03:28:01.174Z,17.20
2022-08-17T03:30:29.649Z,17.30
2022-08-17T03:33:00.007Z,17.30
2022-08-17T03:35:29.700Z,17.20
2022-08-17T03:38:00.228Z,17.20
2022-08-17T03:40:37.013Z,17.00
2022-08-17T03:43:15.696Z,16.90
2022-08-17T03:46:01.462Z,16.90
2022-08-17T03:48:47.088Z,16.80
2022-08-17T03:51:37.269Z,16.80
2022-08-17T03:54:22.596Z,16.70
2022-08-17T03:57:04.337Z,16.70
2022-08-17T03:59:31.570Z,16.70
2022-08-17T04:02:04.101Z,16.60
2022-08-17T04:04:30.839Z,16.60
2022-08-17T04:06:57.851Z,16.60
2022-08-17T04:09:24.721Z,16.60
2022-08-17T04:11:51.974Z,16.60
2022-08-17T04:14:18.667Z,16.60
2022-08-17T04:16:45.360Z,16.60
2022-08-17T04:19:12.137Z,16.60
2022-08-17T04:21:38.870Z,16.70
2022-08-17T04:24:05.913Z,16.70
2022-08-17T04:26:53.937Z,16.70
2022-08-17T04:29:19.947Z,16.80
2022-08-17T04:31:46.610Z,16.80
2022-08-17T04:34:13.230Z,16.90
2022-08-17T04:36:39.978Z,16.90
2022-08-17T04:39:14.841Z,16.90
2022-08-17T04:41:59.967Z,17.00
2022-08-17T04:44:36.766Z,17.10
2022-08-17T04:47:05.024Z,17.10
2022-08-17T04:49:32.593Z,17.10
2022-08-17T04:52:04.382Z,17.20
2022-08-17T04:54:31.373Z,17.30
2022-08-17T04:56:58.036Z,17.30
2022-08-17T04:59:24.855Z,17.40
2022-08-17T05:01:52.503Z,17.50
2022-08-17T05:04:34.009Z,17.60
2022-08-17T05:07:02.359Z,17.70
2022-08-17T05:09:29.264Z,17.80
2022-08-17T05:11:56.342Z,17.90
2022-08-17T05:14:32.862Z,18.00
2022-08-17T05:17:01.173Z,18.10
2022-08-17T05:19:28.498Z,18.10
2022-08-17T05:21:55.149Z,18.20
2022-08-17T05:24:38.386Z,18.30
2022-08-17T05:27:08.552Z,18.40
2022-08-17T05:29:35.974Z,18.60
2022-08-17T05:32:38.059Z,18.70
2022-08-17T05:35:00.758Z,18.80
2022-08-17T05:37:28.172Z,18.80
2022-08-17T05:39:55.011Z,18.90
2022-08-17T05:42:21.906Z,19.00
2022-08-17T05:44:48.692Z,19.10
2022-08-17T05:47:15.454Z,19.10
2022-08-17T05:49:42.148Z,19.20
2022-08-17T05:52:26.355Z,19.20
2022-08-17T05:55:17.710Z,19.30
2022-08-17T05:58:13.428Z,19.50
2022-08-17T06:00:58.117Z,19.60
2022-08-17T06:03:49.459Z,19.70
2022-08-17T06:06:34.071Z,19.90
2022-08-17T06:09:25.789Z,20.00
2022-08-17T06:12:19.699Z,20.20
2022-08-17T06:15:26.266Z,20.30
2022-08-17T06:17:58.457Z,20.60
2022-08-17T06:20:28.596Z,20.80
2022-08-17T06:23:04.026Z,21.00
2022-08-17T06:25:42.806Z,21.20
2022-08-17T06:28:16.212Z,21.40
2022-08-17T06:31:00.630Z,21.50
2022-08-17T06:33:34.597Z,21.70
2022-08-17T06:36:17.479Z,21.90
2022-08-17T06:38:59.882Z,22.20
2022-08-17T06:42:00.780Z,22.30
2022-08-17T06:44:47.540Z,22.60
2022-08-17T06:48:04.409Z,22.80
2022-08-17T06:50:42.419Z,23.10
2022-08-17T06:53:24.482Z,23.30
2022-08-17T06:56:00.145Z,23.40
2022-08-17T06:58:31.190Z,23.60
2022-08-17T07:01:12.988Z,23.80
2022-08-17T07:04:12.200Z,23.90
2022-08-17T07:06:50.279Z,24.20
2022-08-17T07:09:37.173Z,24.60
2022-08-17T07:12:22.152Z,25.00
2022-08-17T07:14:59.584Z,25.40
2022-08-17T07:17:47.029Z,25.80
2022-08-17T07:20:20.543Z,26.40
2022-08-17T07:23:01.866Z,26.90
2022-08-17T07:25:30.721Z,27.30
2022-08-17T07:28:00.717Z,27.80
2022-08-17T07:30:31.011Z,28.20
2022-08-17T07:33:13.557Z,28.60
2022-08-17T07:35:44.009Z,29.00
2022-08-17T07:38:26.332Z,29.40
2022-08-17T07:41:06.200Z,29.80
2022-08-17T07:43:41.879Z,30.20
2022-08-17T07:46:36.485Z,30.50
2022-08-17T07:49:09.369Z,30.80
2022-08-17T07:51:44.082Z,31.10
2022-08-17T07:54:22.605Z,31.40
2022-08-17T07:57:01.772Z,31.50
2022-08-17T07:59:36.883Z,31.80
2022-08-17T08:02:26.482Z,32.00
2022-08-17T08:05:12.902Z,32.10
2022-08-17T08:07:54.960Z,32.30
2022-08-17T08:10:38.457Z,32.60
2022-08-17T08:13:14.180Z,32.90
2022-08-17T08:15:53.726Z,33.00
2022-08-17T08:18:53.612Z,33.20
2022-08-17T08:21:18.284Z,33.50
2022-08-17T08:23:53.601Z,33.80
2022-08-17T08:26:29.410Z,33.90
2022-08-17T08:29:03.564Z,34.00
2022-08-17T08:31:48.803Z,34.30
2022-08-17T08:34:58.907Z,34.60
2022-08-17T08:37:42.912Z,34.80
2022-08-17T08:40:39.035Z,35.00
2022-08-17T08:43:36.117Z,35.00
2022-08-17T08:46:05.718Z,35.30
2022-08-17T08:48:56.603Z,35.40
2022-08-17T08:51:42.346Z,35.70
2022-08-17T08:54:34.458Z,35.70
2022-08-17T08:57:25.602Z,36.00
2022-08-17T09:00:19.255Z,36.20
2022-08-17T09:03:14.160Z,36.20
2022-08-17T09:05:53.433Z,36.30
2022-08-17T09:08:41.478Z,36.40
2022-08-17T09:11:24.672Z,36.70
2022-08-17T09:13:54.294Z,36.70
2022-08-17T09:16:52.577Z,37.00
2022-08-17T09:19:34.858Z,37.00
2022-08-17T09:22:17.718Z,37.00
2022-08-17T09:28:38.685Z,37.30
2022-08-17T09:31:17.855Z,37.70
2022-08-17T09:33:46.984Z,37.80
2022-08-17T09:36:22.291Z,37.70
2022-08-17T09:39:03.915Z,37.60
2022-08-17T09:42:10.410Z,37.70
2022-08-17T09:44:57.797Z,37.80
2022-08-17T09:47:50.398Z,37.60
2022-08-17T09:51:05.422Z,37.70
2022-08-17T09:53:26.256Z,37.80
2022-08-17T09:56:20.995Z,37.40
2022-08-17T09:59:08.717Z,37.40
2022-08-17T10:01:43.467Z,37.70
2022-08-17T10:04:19.952Z,37.80
2022-08-17T10:07:30.386Z,37.90
2022-08-17T10:10:14.247Z,37.70
2022-08-17T10:13:19.632Z,37.70
2022-08-17T10:16:19.280Z,37.00
2022-08-17T10:19:10.933Z,36.50
2022-08-17T10:22:01.171Z,36.20
2022-08-17T10:25:21.560Z,35.50
2022-08-17T10:27:52.471Z,34.90
2022-08-17T10:30:23.067Z,34.30
2022-08-17T10:33:00.821Z,34.00
2022-08-17T10:36:10.687Z,33.70
2022-08-17T10:39:02.560Z,33.50
2022-08-17T10:41:46.720Z,33.30
2022-08-17T10:44:41.110Z,33.10
2022-08-17T10:47:10.459Z,33.20
2022-08-17T10:49:47.385Z,33.40
2022-08-17T10:52:19.900Z,33.40
2022-08-17T10:55:11.515Z,33.40
2022-08-17T10:57:46.812Z,33.40
2022-08-17T11:00:15.806Z,33.30
2022-08-17T11:03:01.087Z,33.30
2022-08-17T11:06:12.601Z,33.30
2022-08-17T11:09:10.678Z,33.40
2022-08-17T11:11:56.650Z,33.60
2022-08-17T11:15:11.809Z,33.80
2022-08-17T11:18:18.719Z,34.60
2022-08-17T11:21:03.474Z,35.00
2022-08-17T11:24:01.431Z,34.80
2022-08-17T11:26:31.973Z,34.40
2022-08-17T11:29:10.500Z,34.20
2022-08-17T11:31:44.356Z,33.90
2022-08-17T11:34:26.179Z,33.60
2022-08-17T11:37:28.939Z,33.20
2022-08-17T11:40:14.407Z,33.00
2022-08-17T11:43:21.143Z,32.70
2022-08-17T11:46:16.250Z,32.50
2022-08-17T11:49:21.689Z,32.30
2022-08-17T11:52:00.376Z,32.20
2022-08-17T11:54:33.634Z,32.10
2022-08-17T11:57:27.071Z,32.10
2022-08-17T11:59:59.100Z,32.20
2022-08-17T12:02:31.606Z,32.60
2022-08-17T12:05:14.457Z,33.20
2022-08-17T12:08:07.972Z,33.90
2022-08-17T12:10:40.413Z,34.00
2022-08-17T12:13:14.361Z,34.10
2022-08-17T12:15:49.201Z,34.00
2022-08-17T12:18:21.022Z,34.00
2022-08-17T12:21:01.918Z,33.80
2022-08-17T12:24:05.271Z,33.70
2022-08-17T12:26:34.562Z,33.50
2022-08-17T12:29:04.450Z,33.70
2022-08-17T12:31:36.595Z,34.40
2022-08-17T12:34:04.985Z,35.40
2022-08-17T12:36:33.319Z,36.20
2022-08-17T12:39:14.228Z,36.90
2022-08-17T12:41:46.733Z,37.30
2022-08-17T12:44:18.386Z,36.80
2022-08-17T12:47:19.391Z,36.20
2022-08-17T12:49:53.794Z,35.40
2022-08-17T12:52:27.217Z,34.90
2022-08-17T12:54:53.787Z,34.40
2022-08-17T12:57:29.894Z,34.00
2022-08-17T13:00:09.711Z,33.70
2022-08-17T13:02:51.338Z,33.50
2022-08-17T13:05:23.064Z,33.20
2022-08-17T13:07:50.884Z,33.00
2022-08-17T13:10:22.533Z,32.80
2022-08-17T13:12:50.919Z,32.70
2022-08-17T13:15:23.583Z,32.70
2022-08-17T13:18:03.997Z,32.70
2022-08-17T13:20:30.797Z,32.70
2022-08-17T13:23:01.082Z,33.00
2022-08-17T13:25:29.740Z,33.80
2022-08-17T13:27:56.680Z,34.60
2022-08-17T13:30:33.078Z,35.30
2022-08-17T13:33:04.066Z,36.10
2022-08-17T13:35:40.570Z,36.80
2022-08-17T13:38:09.499Z,37.20
2022-08-17T13:40:41.688Z,37.50
2022-08-17T13:43:09.544Z,37.70
2022-08-17T13:45:43.479Z,37.80
2022-08-17T13:48:20.513Z,37.90
2022-08-17T13:51:12.926Z,37.70
2022-08-17T13:53:54.756Z,36.80
2022-08-17T13:56:37.104Z,36.20
2022-08-17T13:59:16.140Z,35.60
2022-08-17T14:01:53.488Z,35.20
2022-08-17T14:04:27.934Z,34.80
2022-08-17T14:07:03.644Z,34.50
2022-08-17T14:09:37.599Z,34.00
2022-08-17T14:12:09.573Z,33.80
2022-08-17T14:14:36.535Z,33.60
2022-08-17T14:17:03.622Z,33.50
2022-08-17T14:19:30.342Z,33.60
2022-08-17T14:21:59.031Z,33.70
2022-08-17T14:24:32.362Z,33.90
2022-08-17T14:26:59.647Z,34.00
2022-08-17T14:29:28.207Z,34.30
2022-08-17T14:31:56.119Z,34.20
2022-08-17T14:34:24.838Z,34.40
2022-08-17T14:36:52.034Z,34.70
2022-08-17T14:39:19.786Z,34.60
2022-08-17T14:41:46.898Z,34.60
2022-08-17T14:44:13.951Z,34.50
2022-08-17T14:46:42.168Z,34.40
2022-08-17T14:49:12.095Z,34.60
2022-08-17T14:51:43.953Z,34.80
2022-08-17T14:54:11.217Z,35.00
2022-08-17T14:56:38.643Z,35.30
2022-08-17T14:59:05.430Z,35.50
2022-08-17T15:01:32.083Z,35.70
2022-08-17T15:03:59.382Z,35.70
2022-08-17T15:06:26.008Z,35.70
2022-08-17T15:08:53.531Z,35.60
2022-08-17T15:11:20.231Z,35.60
2022-08-17T15:13:52.404Z,35.50
2022-08-17T15:16:20.471Z,35.50
2022-08-17T15:18:47.288Z,35.60
2022-08-17T15:21:14.833Z,35.70
2022-08-17T15:23:41.899Z,35.70
2022-08-17T15:26:11.129Z,35.80
2022-08-17T15:28:37.817Z,35.40
2022-08-17T15:31:06.048Z,35.50
2022-08-17T15:33:32.855Z,35.50
2022-08-17T15:36:04.630Z,35.30
2022-08-17T15:38:33.995Z,34.90
2022-08-17T15:41:01.592Z,34.50
2022-08-17T15:43:50.646Z,34.10
2022-08-17T15:46:23.560Z,34.00
2022-08-17T15:49:09.565Z,33.90
2022-08-17T15:51:36.328Z,33.60
2022-08-17T15:54:22.135Z,33.30
2022-08-17T15:56:52.438Z,33.20
2022-08-17T15:59:19.415Z,33.10
2022-08-17T16:03:15.301Z,33.20
2022-08-17T16:04:32.963Z,33.10
2022-08-17T16:07:00.347Z,33.10
2022-08-17T16:09:27.651Z,33.00
2022-08-17T16:11:56.253Z,33.10
2022-08-17T16:14:24.627Z,33.20
2022-08-17T16:16:59.240Z,33.10
2022-08-17T16:19:25.945Z,33.00
2022-08-17T16:21:52.647Z,33.00
2022-08-17T16:24:19.359Z,33.00
2022-08-17T16:26:46.083Z,32.90
2022-08-17T16:29:13.374Z,32.70
2022-08-17T16:31:41.831Z,32.60
2022-08-17T16:34:17.945Z,32.40
2022-08-17T16:36:55.127Z,32.20
2022-08-17T16:39:27.455Z,32.00
2022-08-17T16:41:55.839Z,31.80
2022-08-17T16:44:22.724Z,31.70
2022-08-17T16:46:50.370Z,31.60
2022-08-17T16:49:26.774Z,31.40
2022-08-17T16:52:06.356Z,31.40
2022-08-17T16:54:35.512Z,31.20
2022-08-17T16:57:04.955Z,31.20
2022-08-17T16:59:40.846Z,31.10
2022-08-17T17:02:13.590Z,31.10
2022-08-17T17:04:53.720Z,31.00
2022-08-17T17:07:35.857Z,30.90
2022-08-17T17:10:07.654Z,30.90
2022-08-17T17:13:02.745Z,30.90
2022-08-17T17:15:42.518Z,30.80
2022-08-17T17:18:12.639Z,30.70
2022-08-17T17:20:48.159Z,30.60
2022-08-17T17:24:01.053Z,30.50
2022-08-17T17:27:07.143Z,30.40
2022-08-17T17:29:59.558Z,30.20
2022-08-17T17:32:37.987Z,30.00
2022-08-17T17:35:21.437Z,29.90
2022-08-17T17:37:50.079Z,29.80
2022-08-17T17:40:24.798Z,29.70
2022-08-17T17:42:55.346Z,29.60
2022-08-17T17:45:25.998Z,29.50
2022-08-17T17:47:53.525Z,29.40
2022-08-17T17:50:29.358Z,29.30
2022-08-17T17:53:08.795Z,29.20
2022-08-17T17:55:53.217Z,29.10
2022-08-17T17:58:25.997Z,28.90
2022-08-17T18:01:01.552Z,28.80
2022-08-17T18:03:50.632Z,28.70
2022-08-17T18:06:46.852Z,28.50
2022-08-17T18:09:34.133Z,28.50
2022-08-17T18:12:12.930Z,28.40
2022-08-17T18:15:10.791Z,28.30
2022-08-17T18:17:37.545Z,28.20
2022-08-17T18:20:06.909Z,28.00
2022-08-17T18:22:33.861Z,28.00
2022-08-17T18:25:00.761Z,27.90
2022-08-17T18:27:50.239Z,27.80
2022-08-17T18:30:17.010Z,27.70
2022-08-17T18:32:46.512Z,27.70
2022-08-17T18:35:16.101Z,27.60
2022-08-17T18:37:46.149Z,27.50
2022-08-17T18:40:32.281Z,27.40
2022-08-17T18:43:22.988Z,27.30
2022-08-17T18:45:54.612Z,27.20
2022-08-17T18:48:29.895Z,27.20
2022-08-17T18:51:26.288Z,27.10
2022-08-17T18:54:22.958Z,27.00
2022-08-17T18:56:53.500Z,26.90
2022-08-17T18:59:43.666Z,26.80
2022-08-17T19:02:24.219Z,26.70
2022-08-17T19:05:09.550Z,26.60
2022-08-17T19:07:40.975Z,26.50
2022-08-17T19:10:28.630Z,26.40
2022-08-17T19:13:24.388Z,26.40
2022-08-17T19:16:11.595Z,26.30
2022-08-17T19:18:46.279Z,26.20
2022-08-17T19:21:23.849Z,26.10
2022-08-17T19:24:10.184Z,26.10
2022-08-17T19:26:54.533Z,26.00
2022-08-17T19:29:41.218Z,25.90
2022-08-17T19:32:10.303Z,25.90
2022-08-17T19:34:39.034Z,25.80
2022-08-17T19:37:28.754Z,25.70
2022-08-17T19:40:24.512Z,25.70
2022-08-17T19:43:06.206Z,25.70
2022-08-17T19:45:32.871Z,25.60
2022-08-17T19:48:13.447Z,25.60
2022-08-17T19:51:08.575Z,25.50
2022-08-17T19:54:05.395Z,25.40
2022-08-17T19:57:17.293Z,25.30
2022-08-17T19:59:55.789Z,25.30
2022-08-17T20:02:37.447Z,25.20
2022-08-17T20:05:15.546Z,25.20
2022-08-17T20:07:59.588Z,25.20
2022-08-17T20:10:45.129Z,25.10
2022-08-17T20:13:33.684Z,25.00
2022-08-17T20:16:01.915Z,25.00
2022-08-17T20:18:44.064Z,24.90
2022-08-17T20:21:29.901Z,24.90
2022-08-17T20:24:13.818Z,24.90
2022-08-17T20:26:58.592Z,24.90
2022-08-17T20:29:39.987Z,24.80
2022-08-17T20:32:18.703Z,24.70
2022-08-17T20:34:47.780Z,24.70
2022-08-17T20:37:14.471Z,24.70
2022-08-17T20:39:43.779Z,24.60
2022-08-17T20:42:22.520Z,24.60
2022-08-17T20:44:53.953Z,24.60
2022-08-17T20:47:29.540Z,24.60
2022-08-17T20:50:08.108Z,24.60
2022-08-17T20:52:57.430Z,24.50
2022-08-17T20:55:51.999Z,24.50
2022-08-17T20:58:30.851Z,24.50
2022-08-17T21:00:58.698Z,24.40
2022-08-17T21:04:03.988Z,24.30
2022-08-17T21:06:43.563Z,24.30
2022-08-17T21:13:05.946Z,24.20
2022-08-17T21:19:24.686Z,24.20
2022-08-17T21:22:36.444Z,24.20
2022-08-17T21:25:37.159Z,24.20
2022-08-17T21:29:00.265Z,24.10
2022-08-17T21:31:34.394Z,24.10
2022-08-17T21:37:24.736Z,24.00
2022-08-17T21:40:18.530Z,24.00
2022-08-17T21:42:51.512Z,24.00
2022-08-17T21:45:42.418Z,24.00
2022-08-17T21:51:57.100Z,24.00
2022-08-17T21:54:36.800Z,24.00
2022-08-17T21:57:06.367Z,24.00
2022-08-17T21:59:37.149Z,24.00
2022-08-17T22:02:16.267Z,24.00
2022-08-17T22:04:54.908Z,24.00
2022-08-17T22:07:36.220Z,23.90
2022-08-17T22:10:05.450Z,23.90
2022-08-17T22:12:32.220Z,23.90
2022-08-17T22:15:01.749Z,24.00
2022-08-17T22:17:38.541Z,23.90
2022-08-17T22:20:14.368Z,23.90
2022-08-17T22:23:08.938Z,23.90
2022-08-17T22:25:37.396Z,23.90
2022-08-17T22:28:07.555Z,23.80
2022-08-17T22:31:01.221Z,23.80
2022-08-17T22:33:42.580Z,23.80
2022-08-17T22:36:25.029Z,23.70
2022-08-17T22:38:55.932Z,23.60
2022-08-17T22:41:31.850Z,23.60
2022-08-17T22:44:14.523Z,23.50
2022-08-17T22:46:49.250Z,23.50
2022-08-17T22:49:26.898Z,23.50
2022-08-17T22:52:22.453Z,23.50
2022-08-17T22:55:18.157Z,23.50
2022-08-17T22:58:07.835Z,23.50
2022-08-17T23:00:41.282Z,23.40
2022-08-17T23:04:19.992Z,23.40
2022-08-17T23:06:46.890Z,23.40
2022-08-17T23:09:13.515Z,23.30
2022-08-17T23:11:48.795Z,23.30
2022-08-17T23:14:21.473Z,23.20
2022-08-17T23:16:50.191Z,23.20
2022-08-17T23:19:20.658Z,23.20
2022-08-17T23:21:49.156Z,23.10
2022-08-17T23:24:22.182Z,23.10
2022-08-17T23:26:49.260Z,22.90
2022-08-17T23:29:16.054Z,22.90
2022-08-17T23:31:42.793Z,22.90
2022-08-17T23:34:12.898Z,22.90
2022-08-17T23:36:39.723Z,22.80
2022-08-17T23:39:07.267Z,22.80
2022-08-17T23:41:39.831Z,22.80
2022-08-17T23:44:06.976Z,22.70
2022-08-17T23:46:34.470Z,22.70
2022-08-17T23:49:01.506Z,22.70
2022-08-17T23:51:35.925Z,22.60
2022-08-17T23:54:08.417Z,22.60
2022-08-17T23:56:44.368Z,22.50
2022-08-17T23:59:13.578Z,22.60
